Share

Arcadia, NE (68815)

4:28 PM CDT on April 23, 2014 (GMT -0500)
Sharp (KODX) Elev 2070 ft | 41.62 °N, 98.95 °W | Change Station
Active Advisory: Severe Thunderstorm Watch

Current weather conditions updated 35 minutes ago

Mostly Cloudy
Mostly Cloudy
79 °F
Feels Like 79 °F
N
17
Wind Variable Wind from South
Gusts 28 mph
Sunrise 6:44 AM
Sunset 8:25 PM
Moon Waning Crescent

Tomorrow is forecast to be Much Cooler than today.

Pressure 29.49 in
Visibility 10.0 miles
Clouds Mostly Cloudy 7000 ft
Mostly Cloudy 9000 ft
Dew Point 50 °F
Humidity 36%
Rainfall 0.00 in
Snow Depth Not available.
UV 4 out of 16
Pollen 11.40 out of 12
Air Quality Not available.
Flu Activity Sporadic
METAR KODX 232053Z AUTO 17015G24KT 10SM BKN070 BKN090 26/10 A2951 RMK AO2 PK WND 19026/2006 SLP984 T02610100 56016

More Conditions Fewer Conditions

Pressure 29.49 in
Visibility 10.0 miles
Clouds Mostly Cloudy 7000 ft
Mostly Cloudy 9000 ft
Dew Point 50 °F
Humidity 36%
Rainfall 0.00 in
Snow Depth Not available.
UV 4 out of 16
Pollen 11.40 out of 12
Air Quality Not available.
Flu Activity Sporadic
METAR KODX 232053Z AUTO 17015G24KT 10SM BKN070 BKN090 26/10 A2951 RMK AO2 PK WND 19026/2006 SLP984 T02610100 56016

More Conditions Fewer Conditions

10-Day Weather Forecast

Almanac

Astronomy

Apr. 23, 2014 Rise Set
Actual Time 6:44 AM CDT 8:25 PM CDT
Civil Twilight 6:14 AM CDT 8:54 PM CDT
Nautical Twilight 5:39 AM CDT 9:30 PM CDT
Astronomical Twilight 5:01 AM CDT 10:08 PM CDT
Moon 3:21 AM CDT 2:31 PM CDT
Length of Visible Light 14h 40m
Length of Day
13h 41m
Tomorrow will be 2m 32s longer.
Waning Crescent, 32% of the Moon is Illuminated
Today
Waning Crescent
Apr 29
New
May 6
First Quarter
May 14
Full
May 21
Last Quarter

Today's Extremes

State Highs State Lows

Community

  • Stunning Sunrise
    Stunning Sunrise
  • spring flowers
    spring flowers
  • Earth Day Spectrum Ove' Blue
    Earth Day Spectrum Ove' Blue
  • BARN B&W
    BARN B&W
  • April Sunset
    April Sunset

WunderPhotos

Upload Photos

1,704,415 photos uploaded!

WunderBlogs® & News

Nearby

Snow Depth

Station Depth Elevation
No new snow has been reported.

Coastal Water Temperatures

Place Temperature
No Stations Reporting

Earthquake Activity

City Distance Mag. Time & Date
No recent earthquake activity has been reported nearby.
Minimum magnitude displayed is 2.5.

Nearby Weather Stations

Station Location Temp. Heat Index Dew Point Humidity Wind Precip. Elev Updated Type
Central, Loup City, NE 82.8 °F 82 °F 56 °F 40% ENE  at  6.3 mph - / hr 2090 ft 4:15 PM CDT Normal
Sargent, Sargent, NE 78.5 °F 78 °F 44 °F 29% WNW  at  5.0 mph 0.00 in / hr 2314 ft 4:24 PM CDT Normal
Ansley, NE 79.2 °F 79 °F 49 °F 35% WNW  at  8.0 mph 0.00 in / hr 2320 ft 4:00 PM CDT Normal

Show More Stations Show Fewer Stations

What do you think?

We're not finished. Please let us know what you like, what you don't like, and what you are still missing.